sensor_id;sensor_type;location;lat;lon;timestamp;P1;durP1;ratioP1;P2;durP2;ratioP2
70588;SDS011;58152;49.202;18.744;2022-12-19T00:00:42;154.07;;;69.83;;
70588;SDS011;58152;49.202;18.744;2022-12-19T00:03:08;152.57;;;68.33;;
70588;SDS011;58152;49.202;18.744;2022-12-19T00:05:37;137.60;;;66.30;;
70588;SDS011;58152;49.202;18.744;2022-12-19T00:08:03;153.87;;;70.57;;
70588;SDS011;58152;49.202;18.744;2022-12-19T00:10:30;150.63;;;66.63;;
70588;SDS011;58152;49.202;18.744;2022-12-19T00:12:55;145.47;;;65.87;;
70588;SDS011;58152;49.202;18.744;2022-12-19T00:15:21;137.63;;;64.77;;
70588;SDS011;58152;49.202;18.744;2022-12-19T00:17:46;148.80;;;67.17;;
70588;SDS011;58152;49.202;18.744;2022-12-19T00:20:12;151.60;;;69.63;;
70588;SDS011;58152;49.202;18.744;2022-12-19T00:22:37;165.00;;;74.20;;
70588;SDS011;58152;49.202;18.744;2022-12-19T00:25:03;149.57;;;70.10;;
70588;SDS011;58152;49.202;18.744;2022-12-19T00:27:32;150.20;;;68.17;;
70588;SDS011;58152;49.202;18.744;2022-12-19T00:29:58;151.03;;;65.60;;
70588;SDS011;58152;49.202;18.744;2022-12-19T00:32:24;137.93;;;61.53;;
70588;SDS011;58152;49.202;18.744;2022-12-19T00:34:49;126.87;;;61.17;;
70588;SDS011;58152;49.202;18.744;2022-12-19T00:37:15;123.70;;;57.80;;
70588;SDS011;58152;49.202;18.744;2022-12-19T00:39:40;129.67;;;62.47;;
70588;SDS011;58152;49.202;18.744;2022-12-19T00:42:06;130.63;;;60.70;;
70588;SDS011;58152;49.202;18.744;2022-12-19T00:44:31;144.97;;;63.30;;
70588;SDS011;58152;49.202;18.744;2022-12-19T00:46:57;137.33;;;62.93;;
70588;SDS011;58152;49.202;18.744;2022-12-19T00:49:22;131.37;;;58.77;;
70588;SDS011;58152;49.202;18.744;2022-12-19T00:51:48;135.13;;;60.27;;
70588;SDS011;58152;49.202;18.744;2022-12-19T00:54:14;124.33;;;57.80;;
70588;SDS011;58152;49.202;18.744;2022-12-19T00:56:39;135.37;;;65.90;;
70588;SDS011;58152;49.202;18.744;2022-12-19T00:59:05;159.40;;;66.87;;
70588;SDS011;58152;49.202;18.744;2022-12-19T01:01:31;133.10;;;60.27;;
70588;SDS011;58152;49.202;18.744;2022-12-19T01:03:59;136.57;;;60.00;;
70588;SDS011;58152;49.202;18.744;2022-12-19T01:06:26;127.47;;;59.57;;
70588;SDS011;58152;49.202;18.744;2022-12-19T01:08:52;137.37;;;60.37;;
70588;SDS011;58152;49.202;18.744;2022-12-19T01:11:19;133.27;;;58.93;;
70588;SDS011;58152;49.202;18.744;2022-12-19T01:14:04;129.35;;;56.45;;
70588;SDS011;58152;49.202;18.744;2022-12-19T01:16:30;125.40;;;58.40;;
70588;SDS011;58152;49.202;18.744;2022-12-19T01:18:55;121.20;;;54.70;;
70588;SDS011;58152;49.202;18.744;2022-12-19T01:21:21;129.00;;;58.93;;
70588;SDS011;58152;49.202;18.744;2022-12-19T01:23:46;127.30;;;57.47;;
70588;SDS011;58152;49.202;18.744;2022-12-19T01:26:12;128.47;;;59.23;;
70588;SDS011;58152;49.202;18.744;2022-12-19T01:28:38;125.57;;;56.37;;
70588;SDS011;58152;49.202;18.744;2022-12-19T01:31:06;122.93;;;57.33;;
70588;SDS011;58152;49.202;18.744;2022-12-19T01:33:32;118.47;;;55.30;;
70588;SDS011;58152;49.202;18.744;2022-12-19T01:35:57;124.07;;;54.67;;
70588;SDS011;58152;49.202;18.744;2022-12-19T01:38:25;132.57;;;60.50;;
70588;SDS011;58152;49.202;18.744;2022-12-19T01:40:52;125.97;;;58.07;;
70588;SDS011;58152;49.202;18.744;2022-12-19T01:43:19;128.87;;;57.30;;
70588;SDS011;58152;49.202;18.744;2022-12-19T01:45:46;136.17;;;58.13;;
70588;SDS011;58152;49.202;18.744;2022-12-19T01:48:28;132.37;;;59.70;;
70588;SDS011;58152;49.202;18.744;2022-12-19T01:50:59;128.77;;;61.77;;
70588;SDS011;58152;49.202;18.744;2022-12-19T01:53:33;127.33;;;53.93;;
70588;SDS011;58152;49.202;18.744;2022-12-19T01:56:05;132.27;;;57.93;;
70588;SDS011;58152;49.202;18.744;2022-12-19T01:58:34;123.73;;;55.07;;
70588;SDS011;58152;49.202;18.744;2022-12-19T02:01:02;113.83;;;53.50;;
70588;SDS011;58152;49.202;18.744;2022-12-19T02:03:28;123.73;;;56.83;;
70588;SDS011;58152;49.202;18.744;2022-12-19T02:05:56;132.53;;;59.00;;
70588;SDS011;58152;49.202;18.744;2022-12-19T02:08:23;117.73;;;56.57;;
70588;SDS011;58152;49.202;18.744;2022-12-19T02:10:50;128.50;;;55.93;;
70588;SDS011;58152;49.202;18.744;2022-12-19T02:13:16;143.23;;;62.50;;
70588;SDS011;58152;49.202;18.744;2022-12-19T02:18:43;115.23;;;56.57;;
70588;SDS011;58152;49.202;18.744;2022-12-19T02:26:55;118.00;;;53.33;;
70588;SDS011;58152;49.202;18.744;2022-12-19T02:37:46;124.47;;;54.27;;
70588;SDS011;58152;49.202;18.744;2022-12-19T02:40:20;107.50;;;49.08;;
70588;SDS011;58152;49.202;18.744;2022-12-19T02:42:57;106.60;;;46.73;;
70588;SDS011;58152;49.202;18.744;2022-12-19T02:45:29;127.77;;;54.90;;
70588;SDS011;58152;49.202;18.744;2022-12-19T02:47:58;109.63;;;48.87;;
70588;SDS011;58152;49.202;18.744;2022-12-19T02:50:40;121.07;;;55.07;;
70588;SDS011;58152;49.202;18.744;2022-12-19T02:53:09;121.23;;;55.77;;
70588;SDS011;58152;49.202;18.744;2022-12-19T02:56:21;108.07;;;50.83;;
70588;SDS011;58152;49.202;18.744;2022-12-19T03:06:52;105.87;;;49.07;;
70588;SDS011;58152;49.202;18.744;2022-12-19T03:10:09;106.47;;;46.07;;
70588;SDS011;58152;49.202;18.744;2022-12-19T03:12:28;100.20;;;44.27;;
70588;SDS011;58152;49.202;18.744;2022-12-19T03:14:58;102.70;;;46.90;;
70588;SDS011;58152;49.202;18.744;2022-12-19T03:17:24;100.20;;;47.20;;
70588;SDS011;58152;49.202;18.744;2022-12-19T03:19:51;97.70;;;46.97;;
70588;SDS011;58152;49.202;18.744;2022-12-19T03:22:16;109.57;;;50.67;;
70588;SDS011;58152;49.202;18.744;2022-12-19T03:24:41;107.60;;;47.83;;
70588;SDS011;58152;49.202;18.744;2022-12-19T03:27:08;101.43;;;47.33;;
70588;SDS011;58152;49.202;18.744;2022-12-19T03:29:45;110.30;;;48.13;;
70588;SDS011;58152;49.202;18.744;2022-12-19T03:32:15;106.87;;;47.90;;
70588;SDS011;58152;49.202;18.744;2022-12-19T03:37:21;108.27;;;48.60;;
70588;SDS011;58152;49.202;18.744;2022-12-19T03:39:51;110.63;;;51.27;;
70588;SDS011;58152;49.202;18.744;2022-12-19T03:42:21;112.20;;;50.47;;
70588;SDS011;58152;49.202;18.744;2022-12-19T03:45:07;105.83;;;46.17;;
70588;SDS011;58152;49.202;18.744;2022-12-19T03:47:43;113.60;;;50.17;;
70588;SDS011;58152;49.202;18.744;2022-12-19T03:50:14;121.97;;;51.80;;
70588;SDS011;58152;49.202;18.744;2022-12-19T03:52:43;117.07;;;50.80;;
70588;SDS011;58152;49.202;18.744;2022-12-19T03:55:27;114.57;;;52.67;;
70588;SDS011;58152;49.202;18.744;2022-12-19T03:58:03;113.63;;;50.43;;
70588;SDS011;58152;49.202;18.744;2022-12-19T04:00:34;115.87;;;53.87;;
70588;SDS011;58152;49.202;18.744;2022-12-19T04:03:01;112.33;;;49.80;;
70588;SDS011;58152;49.202;18.744;2022-12-19T04:05:31;111.97;;;49.07;;
70588;SDS011;58152;49.202;18.744;2022-12-19T04:08:03;116.73;;;55.93;;
70588;SDS011;58152;49.202;18.744;2022-12-19T04:10:33;112.40;;;50.43;;
70588;SDS011;58152;49.202;18.744;2022-12-19T04:13:05;115.63;;;52.13;;
70588;SDS011;58152;49.202;18.744;2022-12-19T04:16:19;114.73;;;53.07;;
70588;SDS011;58152;49.202;18.744;2022-12-19T04:18:30;120.13;;;54.20;;
70588;SDS011;58152;49.202;18.744;2022-12-19T04:20:58;129.73;;;57.73;;
70588;SDS011;58152;49.202;18.744;2022-12-19T04:23:30;121.17;;;56.27;;
70588;SDS011;58152;49.202;18.744;2022-12-19T04:26:02;126.33;;;57.13;;
70588;SDS011;58152;49.202;18.744;2022-12-19T04:28:32;123.17;;;58.10;;
70588;SDS011;58152;49.202;18.744;2022-12-19T04:31:03;108.40;;;49.33;;
70588;SDS011;58152;49.202;18.744;2022-12-19T04:33:32;123.53;;;55.20;;
70588;SDS011;58152;49.202;18.744;2022-12-19T04:35:58;129.30;;;56.27;;
70588;SDS011;58152;49.202;18.744;2022-12-19T04:38:24;114.27;;;50.30;;
70588;SDS011;58152;49.202;18.744;2022-12-19T04:40:51;119.93;;;55.00;;
70588;SDS011;58152;49.202;18.744;2022-12-19T04:43:16;131.33;;;57.07;;
70588;SDS011;58152;49.202;18.744;2022-12-19T04:45:42;118.03;;;52.23;;
70588;SDS011;58152;49.202;18.744;2022-12-19T04:48:07;121.03;;;53.47;;
70588;SDS011;58152;49.202;18.744;2022-12-19T04:50:33;110.33;;;48.47;;
70588;SDS011;58152;49.202;18.744;2022-12-19T04:52:59;101.97;;;47.73;;
70588;SDS011;58152;49.202;18.744;2022-12-19T04:55:24;107.57;;;47.63;;
70588;SDS011;58152;49.202;18.744;2022-12-19T04:57:50;104.80;;;49.20;;
70588;SDS011;58152;49.202;18.744;2022-12-19T05:00:15;108.20;;;49.10;;
70588;SDS011;58152;49.202;18.744;2022-12-19T05:02:41;113.80;;;50.17;;
70588;SDS011;58152;49.202;18.744;2022-12-19T05:05:07;111.17;;;50.37;;
70588;SDS011;58152;49.202;18.744;2022-12-19T05:07:33;116.13;;;50.37;;
70588;SDS011;58152;49.202;18.744;2022-12-19T05:09:58;104.20;;;46.03;;
70588;SDS011;58152;49.202;18.744;2022-12-19T05:12:24;110.03;;;47.77;;
70588;SDS011;58152;49.202;18.744;2022-12-19T05:14:49;96.33;;;44.43;;
70588;SDS011;58152;49.202;18.744;2022-12-19T05:17:15;110.20;;;50.33;;
70588;SDS011;58152;49.202;18.744;2022-12-19T05:19:40;107.37;;;46.87;;
70588;SDS011;58152;49.202;18.744;2022-12-19T05:22:06;102.77;;;45.83;;
70588;SDS011;58152;49.202;18.744;2022-12-19T05:24:31;106.33;;;49.43;;
70588;SDS011;58152;49.202;18.744;2022-12-19T05:26:57;119.13;;;49.83;;
70588;SDS011;58152;49.202;18.744;2022-12-19T05:29:22;103.03;;;49.17;;
70588;SDS011;58152;49.202;18.744;2022-12-19T05:31:48;106.57;;;46.57;;
70588;SDS011;58152;49.202;18.744;2022-12-19T05:34:13;105.63;;;48.23;;
70588;SDS011;58152;49.202;18.744;2022-12-19T05:36:39;101.63;;;48.93;;
70588;SDS011;58152;49.202;18.744;2022-12-19T05:39:04;98.20;;;44.00;;
70588;SDS011;58152;49.202;18.744;2022-12-19T05:41:30;96.83;;;45.07;;
70588;SDS011;58152;49.202;18.744;2022-12-19T05:43:56;113.13;;;50.17;;
70588;SDS011;58152;49.202;18.744;2022-12-19T05:46:21;110.60;;;50.23;;
70588;SDS011;58152;49.202;18.744;2022-12-19T05:48:48;111.07;;;49.53;;
70588;SDS011;58152;49.202;18.744;2022-12-19T05:51:14;104.77;;;47.50;;
70588;SDS011;58152;49.202;18.744;2022-12-19T05:53:40;113.00;;;51.87;;
70588;SDS011;58152;49.202;18.744;2022-12-19T05:56:07;98.43;;;44.03;;
70588;SDS011;58152;49.202;18.744;2022-12-19T05:58:38;105.20;;;48.10;;
70588;SDS011;58152;49.202;18.744;2022-12-19T06:01:05;107.53;;;47.00;;
70588;SDS011;58152;49.202;18.744;2022-12-19T06:03:32;99.77;;;42.73;;
70588;SDS011;58152;49.202;18.744;2022-12-19T06:06:01;110.20;;;45.53;;
70588;SDS011;58152;49.202;18.744;2022-12-19T06:08:31;96.73;;;46.57;;
70588;SDS011;58152;49.202;18.744;2022-12-19T06:10:57;99.47;;;46.03;;
70588;SDS011;58152;49.202;18.744;2022-12-19T06:13:24;94.77;;;44.03;;
70588;SDS011;58152;49.202;18.744;2022-12-19T06:15:55;101.13;;;45.90;;
70588;SDS011;58152;49.202;18.744;2022-12-19T06:18:22;101.07;;;45.37;;
70588;SDS011;58152;49.202;18.744;2022-12-19T06:23:30;98.87;;;44.30;;
70588;SDS011;58152;49.202;18.744;2022-12-19T06:25:58;90.00;;;41.30;;
70588;SDS011;58152;49.202;18.744;2022-12-19T06:28:25;92.43;;;41.67;;
70588;SDS011;58152;49.202;18.744;2022-12-19T06:30:54;88.43;;;41.23;;
70588;SDS011;58152;49.202;18.744;2022-12-19T06:33:20;100.60;;;43.70;;
70588;SDS011;58152;49.202;18.744;2022-12-19T06:35:46;104.27;;;49.20;;
70588;SDS011;58152;49.202;18.744;2022-12-19T06:38:11;92.50;;;43.17;;
70588;SDS011;58152;49.202;18.744;2022-12-19T06:40:43;103.83;;;44.57;;
70588;SDS011;58152;49.202;18.744;2022-12-19T06:43:27;109.53;;;47.57;;
70588;SDS011;58152;49.202;18.744;2022-12-19T06:45:53;89.20;;;39.60;;
70588;SDS011;58152;49.202;18.744;2022-12-19T06:48:20;103.17;;;44.33;;
70588;SDS011;58152;49.202;18.744;2022-12-19T06:50:45;88.60;;;39.63;;
70588;SDS011;58152;49.202;18.744;2022-12-19T06:53:11;108.50;;;49.13;;
70588;SDS011;58152;49.202;18.744;2022-12-19T06:55:36;98.67;;;42.70;;
70588;SDS011;58152;49.202;18.744;2022-12-19T06:58:02;93.13;;;42.30;;
70588;SDS011;58152;49.202;18.744;2022-12-19T07:00:28;79.03;;;38.47;;
70588;SDS011;58152;49.202;18.744;2022-12-19T07:02:54;94.63;;;42.70;;
70588;SDS011;58152;49.202;18.744;2022-12-19T07:05:20;96.47;;;45.63;;
70588;SDS011;58152;49.202;18.744;2022-12-19T07:07:46;90.27;;;41.97;;
70588;SDS011;58152;49.202;18.744;2022-12-19T07:10:12;89.30;;;42.50;;
70588;SDS011;58152;49.202;18.744;2022-12-19T07:12:37;91.77;;;43.47;;
70588;SDS011;58152;49.202;18.744;2022-12-19T07:15:03;92.50;;;40.27;;
70588;SDS011;58152;49.202;18.744;2022-12-19T07:17:29;88.00;;;40.63;;
70588;SDS011;58152;49.202;18.744;2022-12-19T07:19:55;98.07;;;44.00;;
70588;SDS011;58152;49.202;18.744;2022-12-19T07:22:22;94.83;;;42.50;;
70588;SDS011;58152;49.202;18.744;2022-12-19T07:24:51;92.23;;;42.53;;
70588;SDS011;58152;49.202;18.744;2022-12-19T07:27:17;91.33;;;42.27;;
70588;SDS011;58152;49.202;18.744;2022-12-19T07:29:43;94.87;;;41.73;;
70588;SDS011;58152;49.202;18.744;2022-12-19T07:32:21;94.57;;;42.70;;
70588;SDS011;58152;49.202;18.744;2022-12-19T07:34:55;92.23;;;41.43;;
70588;SDS011;58152;49.202;18.744;2022-12-19T07:37:21;97.80;;;41.47;;
70588;SDS011;58152;49.202;18.744;2022-12-19T07:39:47;96.37;;;44.50;;
70588;SDS011;58152;49.202;18.744;2022-12-19T07:42:17;93.67;;;41.23;;
70588;SDS011;58152;49.202;18.744;2022-12-19T07:44:42;94.20;;;40.33;;
70588;SDS011;58152;49.202;18.744;2022-12-19T07:47:08;96.40;;;41.10;;
70588;SDS011;58152;49.202;18.744;2022-12-19T07:49:37;95.17;;;40.30;;
70588;SDS011;58152;49.202;18.744;2022-12-19T07:52:03;98.03;;;44.93;;
70588;SDS011;58152;49.202;18.744;2022-12-19T07:54:28;107.93;;;48.43;;
70588;SDS011;58152;49.202;18.744;2022-12-19T07:56:54;112.40;;;49.87;;
70588;SDS011;58152;49.202;18.744;2022-12-19T07:59:20;107.37;;;50.97;;
70588;SDS011;58152;49.202;18.744;2022-12-19T08:01:46;110.73;;;49.97;;
70588;SDS011;58152;49.202;18.744;2022-12-19T08:04:20;100.80;;;45.70;;
70588;SDS011;58152;49.202;18.744;2022-12-19T08:06:46;103.10;;;44.67;;
70588;SDS011;58152;49.202;18.744;2022-12-19T08:09:11;105.07;;;46.97;;
70588;SDS011;58152;49.202;18.744;2022-12-19T08:11:37;110.53;;;47.03;;
70588;SDS011;58152;49.202;18.744;2022-12-19T08:14:03;105.90;;;50.67;;
70588;SDS011;58152;49.202;18.744;2022-12-19T08:16:28;110.10;;;49.50;;
70588;SDS011;58152;49.202;18.744;2022-12-19T08:18:54;106.33;;;47.97;;
70588;SDS011;58152;49.202;18.744;2022-12-19T08:21:20;88.27;;;40.77;;
70588;SDS011;58152;49.202;18.744;2022-12-19T08:23:46;104.40;;;47.50;;
70588;SDS011;58152;49.202;18.744;2022-12-19T08:26:13;107.40;;;51.00;;
70588;SDS011;58152;49.202;18.744;2022-12-19T08:28:40;96.27;;;48.40;;
70588;SDS011;58152;49.202;18.744;2022-12-19T08:31:07;96.83;;;45.67;;
70588;SDS011;58152;49.202;18.744;2022-12-19T08:33:34;99.60;;;46.23;;
70588;SDS011;58152;49.202;18.744;2022-12-19T08:36:04;85.00;;;42.97;;
70588;SDS011;58152;49.202;18.744;2022-12-19T08:38:30;89.57;;;41.30;;
70588;SDS011;58152;49.202;18.744;2022-12-19T08:40:56;82.83;;;39.83;;
70588;SDS011;58152;49.202;18.744;2022-12-19T08:43:21;80.53;;;39.73;;
70588;SDS011;58152;49.202;18.744;2022-12-19T08:45:47;72.27;;;34.80;;
70588;SDS011;58152;49.202;18.744;2022-12-19T08:48:14;83.00;;;38.00;;
70588;SDS011;58152;49.202;18.744;2022-12-19T08:50:47;85.53;;;41.03;;
70588;SDS011;58152;49.202;18.744;2022-12-19T08:53:16;84.33;;;39.90;;
70588;SDS011;58152;49.202;18.744;2022-12-19T08:55:42;84.00;;;39.43;;
70588;SDS011;58152;49.202;18.744;2022-12-19T08:58:08;91.87;;;40.37;;
70588;SDS011;58152;49.202;18.744;2022-12-19T09:00:33;86.33;;;39.37;;
70588;SDS011;58152;49.202;18.744;2022-12-19T09:03:01;99.50;;;45.87;;
70588;SDS011;58152;49.202;18.744;2022-12-19T09:05:27;88.07;;;39.47;;
70588;SDS011;58152;49.202;18.744;2022-12-19T09:07:58;81.23;;;39.37;;
70588;SDS011;58152;49.202;18.744;2022-12-19T09:10:28;78.67;;;37.77;;
70588;SDS011;58152;49.202;18.744;2022-12-19T09:12:55;71.93;;;34.80;;
70588;SDS011;58152;49.202;18.744;2022-12-19T09:15:28;78.13;;;37.50;;
70588;SDS011;58152;49.202;18.744;2022-12-19T09:17:54;75.23;;;37.47;;
70588;SDS011;58152;49.202;18.744;2022-12-19T09:20:20;77.77;;;37.07;;
70588;SDS011;58152;49.202;18.744;2022-12-19T09:22:45;78.57;;;37.10;;
70588;SDS011;58152;49.202;18.744;2022-12-19T09:25:21;80.27;;;37.07;;
70588;SDS011;58152;49.202;18.744;2022-12-19T09:27:46;77.17;;;36.93;;
70588;SDS011;58152;49.202;18.744;2022-12-19T09:30:19;88.33;;;40.83;;
70588;SDS011;58152;49.202;18.744;2022-12-19T09:32:45;84.33;;;40.80;;
70588;SDS011;58152;49.202;18.744;2022-12-19T09:35:11;84.40;;;39.90;;
70588;SDS011;58152;49.202;18.744;2022-12-19T09:44:44;82.73;;;43.23;;
70588;SDS011;58152;49.202;18.744;2022-12-19T09:47:32;84.33;;;39.90;;
70588;SDS011;58152;49.202;18.744;2022-12-19T09:50:09;88.00;;;41.90;;
70588;SDS011;58152;49.202;18.744;2022-12-19T09:53:02;77.27;;;38.47;;
70588;SDS011;58152;49.202;18.744;2022-12-19T10:09:31;80.80;;;40.23;;
70588;SDS011;58152;49.202;18.744;2022-12-19T11:25:40;67.37;;;40.90;;
70588;SDS011;58152;49.202;18.744;2022-12-19T11:28:31;80.83;;;44.10;;
70588;SDS011;58152;49.202;18.744;2022-12-19T11:34:30;72.37;;;40.10;;
70588;SDS011;58152;49.202;18.744;2022-12-19T12:41:23;69.25;;;40.67;;
70588;SDS011;58152;49.202;18.744;2022-12-19T13:28:32;53.17;;;30.15;;
70588;SDS011;58152;49.202;18.744;2022-12-19T13:34:31;46.75;;;25.55;;
70588;SDS011;58152;49.202;18.744;2022-12-19T14:02:14;47.67;;;26.13;;
70588;SDS011;58152;49.202;18.744;2022-12-19T14:04:55;48.00;;;24.13;;
70588;SDS011;58152;49.202;18.744;2022-12-19T14:07:29;46.55;;;25.25;;
70588;SDS011;58152;49.202;18.744;2022-12-19T14:09:57;44.15;;;24.95;;
70588;SDS011;58152;49.202;18.744;2022-12-19T14:12:43;45.45;;;25.13;;
70588;SDS011;58152;49.202;18.744;2022-12-19T14:15:31;44.60;;;24.25;;
70588;SDS011;58152;49.202;18.744;2022-12-19T14:21:16;45.50;;;24.42;;
70588;SDS011;58152;49.202;18.744;2022-12-19T14:30:20;51.17;;;26.63;;
70588;SDS011;58152;49.202;18.744;2022-12-19T14:32:57;63.35;;;30.95;;
70588;SDS011;58152;49.202;18.744;2022-12-19T14:35:36;57.72;;;30.38;;
70588;SDS011;58152;49.202;18.744;2022-12-19T14:38:36;51.42;;;27.90;;
70588;SDS011;58152;49.202;18.744;2022-12-19T14:41:59;52.15;;;27.13;;
70588;SDS011;58152;49.202;18.744;2022-12-19T14:44:49;48.70;;;25.75;;
70588;SDS011;58152;49.202;18.744;2022-12-19T14:47:25;48.85;;;26.73;;
70588;SDS011;58152;49.202;18.744;2022-12-19T14:49:58;48.67;;;27.52;;
70588;SDS011;58152;49.202;18.744;2022-12-19T14:58:27;62.67;;;31.17;;
70588;SDS011;58152;49.202;18.744;2022-12-19T15:01:00;48.40;;;25.83;;
70588;SDS011;58152;49.202;18.744;2022-12-19T15:03:58;48.55;;;26.77;;
70588;SDS011;58152;49.202;18.744;2022-12-19T15:06:30;48.58;;;27.13;;
70588;SDS011;58152;49.202;18.744;2022-12-19T15:09:04;56.03;;;30.08;;
70588;SDS011;58152;49.202;18.744;2022-12-19T15:11:41;50.83;;;26.77;;
70588;SDS011;58152;49.202;18.744;2022-12-19T15:14:48;46.90;;;25.17;;
70588;SDS011;58152;49.202;18.744;2022-12-19T15:17:20;45.42;;;25.00;;
70588;SDS011;58152;49.202;18.744;2022-12-19T15:19:49;48.72;;;25.95;;
70588;SDS011;58152;49.202;18.744;2022-12-19T15:22:28;49.05;;;25.23;;
70588;SDS011;58152;49.202;18.744;2022-12-19T15:24:59;46.63;;;25.23;;
70588;SDS011;58152;49.202;18.744;2022-12-19T15:27:32;55.00;;;29.27;;
70588;SDS011;58152;49.202;18.744;2022-12-19T15:32:30;48.78;;;25.92;;
70588;SDS011;58152;49.202;18.744;2022-12-19T15:34:58;51.70;;;27.13;;
70588;SDS011;58152;49.202;18.744;2022-12-19T15:37:43;50.05;;;27.08;;
70588;SDS011;58152;49.202;18.744;2022-12-19T15:40:14;52.88;;;28.23;;
70588;SDS011;58152;49.202;18.744;2022-12-19T15:42:42;58.20;;;31.15;;
70588;SDS011;58152;49.202;18.744;2022-12-19T15:45:14;56.95;;;29.85;;
70588;SDS011;58152;49.202;18.744;2022-12-19T15:47:51;61.80;;;32.25;;
70588;SDS011;58152;49.202;18.744;2022-12-19T15:50:18;59.28;;;32.33;;
70588;SDS011;58152;49.202;18.744;2022-12-19T15:52:48;52.83;;;29.38;;
70588;SDS011;58152;49.202;18.744;2022-12-19T15:55:17;49.70;;;26.45;;
70588;SDS011;58152;49.202;18.744;2022-12-19T15:57:48;50.95;;;26.52;;
70588;SDS011;58152;49.202;18.744;2022-12-19T16:00:19;51.50;;;27.38;;
70588;SDS011;58152;49.202;18.744;2022-12-19T16:02:51;46.78;;;26.50;;
70588;SDS011;58152;49.202;18.744;2022-12-19T16:05:18;47.63;;;26.17;;
70588;SDS011;58152;49.202;18.744;2022-12-19T16:07:45;47.05;;;24.92;;
70588;SDS011;58152;49.202;18.744;2022-12-19T16:10:11;49.38;;;26.30;;
70588;SDS011;58152;49.202;18.744;2022-12-19T16:12:38;37.67;;;20.67;;
70588;SDS011;58152;49.202;18.744;2022-12-19T16:15:14;43.28;;;23.40;;
70588;SDS011;58152;49.202;18.744;2022-12-19T16:21:06;36.92;;;20.15;;
70588;SDS011;58152;49.202;18.744;2022-12-19T16:31:15;28.25;;;17.00;;
70588;SDS011;58152;49.202;18.744;2022-12-19T16:33:47;30.75;;;17.63;;
70588;SDS011;58152;49.202;18.744;2022-12-19T16:36:12;43.67;;;20.20;;
70588;SDS011;58152;49.202;18.744;2022-12-19T16:38:38;38.33;;;19.48;;
70588;SDS011;58152;49.202;18.744;2022-12-19T16:41:03;42.00;;;21.35;;
70588;SDS011;58152;49.202;18.744;2022-12-19T16:43:35;33.53;;;18.70;;
70588;SDS011;58152;49.202;18.744;2022-12-19T16:46:05;41.03;;;19.75;;
70588;SDS011;58152;49.202;18.744;2022-12-19T16:48:32;39.92;;;21.38;;
70588;SDS011;58152;49.202;18.744;2022-12-19T16:51:00;35.25;;;20.17;;
70588;SDS011;58152;49.202;18.744;2022-12-19T16:53:26;39.20;;;20.55;;
70588;SDS011;58152;49.202;18.744;2022-12-19T16:55:53;36.30;;;20.15;;
70588;SDS011;58152;49.202;18.744;2022-12-19T16:58:21;34.20;;;19.45;;
70588;SDS011;58152;49.202;18.744;2022-12-19T17:00:50;39.95;;;20.58;;
70588;SDS011;58152;49.202;18.744;2022-12-19T17:05:59;35.55;;;18.52;;
70588;SDS011;58152;49.202;18.744;2022-12-19T17:08:25;37.95;;;20.75;;
70588;SDS011;58152;49.202;18.744;2022-12-19T17:10:53;37.22;;;21.92;;
70588;SDS011;58152;49.202;18.744;2022-12-19T17:13:19;33.80;;;19.33;;
70588;SDS011;58152;49.202;18.744;2022-12-19T17:15:46;39.50;;;19.80;;
70588;SDS011;58152;49.202;18.744;2022-12-19T17:18:20;38.40;;;20.80;;
70588;SDS011;58152;49.202;18.744;2022-12-19T17:20:56;34.20;;;18.48;;
70588;SDS011;58152;49.202;18.744;2022-12-19T17:23:22;34.10;;;18.60;;
70588;SDS011;58152;49.202;18.744;2022-12-19T17:25:48;33.97;;;19.60;;
70588;SDS011;58152;49.202;18.744;2022-12-19T17:28:14;35.47;;;18.63;;
70588;SDS011;58152;49.202;18.744;2022-12-19T17:30:41;37.55;;;19.10;;
70588;SDS011;58152;49.202;18.744;2022-12-19T17:33:14;40.30;;;20.90;;
70588;SDS011;58152;49.202;18.744;2022-12-19T17:35:41;37.33;;;19.15;;
70588;SDS011;58152;49.202;18.744;2022-12-19T17:38:08;36.87;;;20.13;;
70588;SDS011;58152;49.202;18.744;2022-12-19T17:44:11;37.92;;;20.38;;
70588;SDS011;58152;49.202;18.744;2022-12-19T17:46:36;35.25;;;20.23;;
70588;SDS011;58152;49.202;18.744;2022-12-19T17:49:02;36.90;;;19.33;;
70588;SDS011;58152;49.202;18.744;2022-12-19T17:51:28;33.57;;;19.27;;
70588;SDS011;58152;49.202;18.744;2022-12-19T18:09:22;36.07;;;18.50;;
70588;SDS011;58152;49.202;18.744;2022-12-19T18:11:59;33.97;;;19.13;;
70588;SDS011;58152;49.202;18.744;2022-12-19T18:17:50;32.67;;;17.20;;
70588;SDS011;58152;49.202;18.744;2022-12-19T18:48:30;36.53;;;18.52;;
70588;SDS011;58152;49.202;18.744;2022-12-19T18:54:34;32.22;;;17.92;;
70588;SDS011;58152;49.202;18.744;2022-12-19T19:03:58;36.78;;;19.05;;
70588;SDS011;58152;49.202;18.744;2022-12-19T19:06:25;38.00;;;21.08;;
70588;SDS011;58152;49.202;18.744;2022-12-19T19:09:14;49.10;;;24.67;;
70588;SDS011;58152;49.202;18.744;2022-12-19T19:11:53;44.13;;;23.13;;
70588;SDS011;58152;49.202;18.744;2022-12-19T19:18:39;39.10;;;19.87;;
70588;SDS011;58152;49.202;18.744;2022-12-19T19:37:58;32.67;;;16.77;;
70588;SDS011;58152;49.202;18.744;2022-12-19T19:43:55;33.45;;;18.10;;
70588;SDS011;58152;49.202;18.744;2022-12-19T19:47:17;30.67;;;16.77;;
70588;SDS011;58152;49.202;18.744;2022-12-19T19:50:33;36.25;;;18.83;;
70588;SDS011;58152;49.202;18.744;2022-12-19T19:56:40;29.83;;;15.70;;
70588;SDS011;58152;49.202;18.744;2022-12-19T21:27:15;29.05;;;16.13;;
70588;SDS011;58152;49.202;18.744;2022-12-19T22:12:14;27.40;;;15.50;;
70588;SDS011;58152;49.202;18.744;2022-12-19T22:18:23;31.98;;;15.45;;
70588;SDS011;58152;49.202;18.744;2022-12-19T22:20:59;21.92;;;13.00;;
70588;SDS011;58152;49.202;18.744;2022-12-19T22:23:25;25.42;;;14.45;;
70588;SDS011;58152;49.202;18.744;2022-12-19T22:39:20;25.42;;;14.75;;
70588;SDS011;58152;49.202;18.744;2022-12-19T22:51:45;28.48;;;15.05;;
70588;SDS011;58152;49.202;18.744;2022-12-19T23:00:53;30.20;;;16.33;;
